Time;durP1;ratioP1;P1;durP2;ratioP2;P2;SDS_P1;SDS_P2;PMS_P1;PMS_P2;Temp;Humidity;BMP_temperature;BMP_pressure;BME280_temperature;BME280_humidity;BME280_pressure;Samples;Min_cycle;Max_cycle;Signal;HPM_P1;HPM_P2
2023/03/05 08:02:28;;;;;;;1.15;1.05;;;3.20;99.30;;;;;;5039634;28;20311;-68
2023/03/05 08:04:55;;;;;;;2.20;2.10;;;3.30;99.10;;;;;;5051358;28;20690;-68
2023/03/05 08:07:22;;;;;;;2.70;2.47;;;3.20;99.20;;;;;;5051624;28;20212;-68
2023/03/05 08:09:49;;;;;;;4.43;2.40;;;3.30;99.50;;;;;;5050577;28;21334;-68
2023/03/05 08:12:16;;;;;;;5.03;2.97;;;3.40;99.40;;;;;;5051601;28;20681;-67
2023/03/05 08:14:43;;;;;;;2.20;2.00;;;3.50;99.90;;;;;;5051334;28;20250;-68
2023/03/05 08:17:10;;;;;;;7.07;5.53;;;3.40;99.00;;;;;;5052749;28;20836;-68
2023/03/05 08:19:38;;;;;;;8.43;4.32;;;3.40;98.90;;;;;;5050267;28;21188;-69
2023/03/05 08:22:05;;;;;;;3.40;2.10;;;3.50;98.80;;;;;;5042173;28;20254;-69
2023/03/05 08:24:32;;;;;;;2.47;2.15;;;3.50;98.60;;;;;;5047581;28;20235;-68
2023/03/05 08:26:59;;;;;;;6.75;3.40;;;3.50;98.60;;;;;;5053185;28;20234;-68
2023/03/05 08:29:27;;;;;;;5.88;2.15;;;3.50;98.60;;;;;;5041639;28;20534;-68
2023/03/05 08:31:54;;;;;;;3.55;3.25;;;3.60;98.60;;;;;;5050848;28;20266;-68
2023/03/05 08:34:22;;;;;;;4.43;3.97;;;3.60;98.70;;;;;;5045938;28;20200;-68
2023/03/05 08:36:55;;;;;;;2.45;1.20;;;3.60;98.20;;;;;;5051182;28;20729;-68
2023/03/05 08:39:22;;;;;;;2.05;1.92;;;3.50;98.10;;;;;;5049642;28;20203;-68
2023/03/05 08:41:49;;;;;;;1.58;1.27;;;3.40;97.40;;;;;;5031639;28;20768;-68
2023/03/05 08:44:16;;;;;;;3.03;1.92;;;;;;;;;;5049094;28;20557;-68
2023/03/05 08:46:43;;;;;;;4.10;2.35;;;3.60;98.00;;;;;;5051174;28;20259;-68
2023/03/05 08:49:10;;;;;;;3.85;2.78;;;3.60;98.00;;;;;;5049326;28;20641;-68
2023/03/05 08:51:37;;;;;;;4.00;3.20;;;3.70;99.90;;;;;;5050835;28;20254;-67
2023/03/05 08:54:07;;;;;;;4.15;2.83;;;3.70;97.50;;;;;;5049515;28;20184;-68
2023/03/05 08:56:34;;;;;;;2.97;1.70;;;3.80;97.70;;;;;;5051309;28;20217;-68
2023/03/05 08:59:08;;;;;;;1.63;1.52;;;3.90;97.40;;;;;;5059847;28;20195;-67
2023/03/05 09:01:35;;;;;;;7.88;2.75;;;3.90;97.20;;;;;;5051258;28;20273;-70
2023/03/05 09:04:02;;;;;;;2.20;1.58;;;4.00;97.10;;;;;;5051131;28;20196;-67
2023/03/05 09:06:29;;;;;;;3.50;3.20;;;4.00;96.60;;;;;;5052802;28;20239;-70
2023/03/05 09:08:56;;;;;;;1.95;1.88;;;4.10;96.80;;;;;;5055048;28;20200;-69
2023/03/05 09:11:25;;;;;;;3.40;2.70;;;4.20;96.80;;;;;;5064378;28;20226;-68
2023/03/05 09:13:52;;;;;;;1.92;1.83;;;4.10;97.90;;;;;;5051737;28;20199;-68
2023/03/05 09:16:19;;;;;;;3.40;2.03;;;4.20;96.10;;;;;;5058919;28;20292;-69
2023/03/05 09:18:46;;;;;;;3.45;1.90;;;4.20;95.80;;;;;;5056696;28;20627;-68
2023/03/05 09:21:17;;;;;;;1.90;1.77;;;4.20;95.90;;;;;;5050489;28;20224;-66
2023/03/05 09:23:45;;;;;;;1.15;1.15;;;4.90;96.30;;;;;;5048353;28;20652;-69
2023/03/05 09:26:14;;;;;;;5.13;2.65;;;4.50;99.90;;;;;;5050079;28;20310;-69
2023/03/05 09:28:42;;;;;;;1.55;1.45;;;4.30;95.40;;;;;;5048142;28;20291;-68
2023/03/05 09:31:17;;;;;;;2.60;2.45;;;4.30;95.70;;;;;;5049875;28;20212;-69
2023/03/05 09:33:44;;;;;;;5.72;2.00;;;4.30;95.20;;;;;;5045222;28;20192;-68
2023/03/05 09:36:20;;;;;;;1.45;1.25;;;4.30;95.50;;;;;;5050096;28;20223;-68
2023/03/05 09:38:47;;;;;;;4.22;3.65;;;4.40;95.80;;;;;;5046769;28;20194;-69
2023/03/05 09:41:21;;;;;;;2.88;2.40;;;4.20;98.40;;;;;;5061430;28;20314;-66
2023/03/05 09:43:59;;;;;;;6.35;3.20;;;4.30;94.90;;;;;;5048405;28;20206;-68
2023/03/05 09:46:37;;;;;;;2.58;2.38;;;4.40;95.30;;;;;;5048293;28;20230;-69
2023/03/05 09:49:14;;;;;;;4.50;2.15;;;4.40;95.00;;;;;;5046927;28;20282;-69
2023/03/05 09:51:45;;;;;;;3.28;3.08;;;4.40;94.60;;;;;;5044023;28;20278;-68
2023/03/05 09:54:17;;;;;;;2.35;1.73;;;4.10;99.90;;;;;;5047485;28;20242;-69
2023/03/05 09:56:50;;;;;;;1.95;1.85;;;4.60;95.20;;;;;;5038329;28;20223;-67
2023/03/05 09:59:27;;;;;;;3.53;2.25;;;4.60;94.40;;;;;;5057540;28;20202;-68
2023/03/05 10:01:59;;;;;;;3.05;2.42;;;4.60;93.40;;;;;;5053386;28;20664;-68
2023/03/05 10:04:38;;;;;;;3.55;3.28;;;4.60;94.20;;;;;;5050046;28;20188;-68
2023/03/05 10:07:12;;;;;;;3.72;3.20;;;4.60;94.40;;;;;;5047949;28;20891;-69
2023/03/05 10:09:45;;;;;;;4.80;2.10;;;4.70;94.50;;;;;;5044645;28;20192;-68
2023/03/05 10:12:26;;;;;;;2.10;2.00;;;4.70;94.40;;;;;;5048774;28;20650;-69
2023/03/05 10:14:56;;;;;;;2.53;2.22;;;4.70;94.00;;;;;;5049885;28;20192;-68
2023/03/05 10:17:56;;;;;;;14.40;2.95;;;4.60;99.90;;;;;;5049077;28;20239;-69
2023/03/05 10:20:41;;;;;;;2.00;1.80;;;4.80;94.30;;;;;;5047618;28;20554;-68
2023/03/05 10:23:28;;;;;;;5.35;2.47;;;4.70;93.90;;;;;;5039665;28;20665;-69
2023/03/05 10:26:06;;;;;;;5.68;3.50;;;4.80;93.90;;;;;;5045084;28;20576;-68
2023/03/05 10:28:43;;;;;;;5.75;2.20;;;4.80;94.30;;;;;;5051925;28;20183;-68
2023/03/05 10:31:43;;;;;;;1.40;1.30;;;4.40;99.90;;;;;;5051758;28;20230;-68
2023/03/05 10:34:24;;;;;;;4.15;2.58;;;4.70;93.90;;;;;;5051470;28;20199;-69
2023/03/05 10:37:12;;;;;;;1.55;1.45;;;4.80;94.00;;;;;;5052892;28;20230;-69
2023/03/05 10:40:09;;;;;;;19.58;2.85;;;4.50;98.60;;;;;;5037530;28;20202;-71
2023/03/05 10:42:45;;;;;;;3.95;1.52;;;4.70;99.90;;;;;;5050999;28;20250;-69
2023/03/05 10:45:16;;;;;;;1.55;0.70;;;4.90;94.30;;;;;;5052648;28;20606;-69
2023/03/05 10:47:51;;;;;;;5.78;2.28;;;4.60;94.00;;;;;;5052672;28;20255;-70
2023/03/05 10:54:02;;;;;;;5.75;3.22;;;4.90;99.90;;;;;;5051939;28;20210;-70
2023/03/05 10:56:30;;;;;;;5.97;2.30;;;4.90;99.50;;;;;;5045769;28;20217;-70
2023/03/05 10:58:57;;;;;;;6.70;3.40;;;4.80;94.00;;;;;;5052830;28;20188;-69
2023/03/05 11:01:27;;;;;;;8.60;3.38;;;4.90;93.80;;;;;;5055238;28;20226;-70
2023/03/05 11:04:46;;;;;;;6.00;2.50;;;4.90;93.50;;;;;;5052409;28;20196;-68
2023/03/05 11:07:38;;;;;;;6.15;3.88;;;4.90;93.90;;;;;;5052319;28;20265;-69
2023/03/05 11:13:56;;;;;;;3.08;2.53;;;4.70;93.40;;;;;;5040783;28;20187;-69
2023/03/05 11:16:25;;;;;;;5.15;3.15;;;4.80;93.60;;;;;;5052888;28;20215;-69
2023/03/05 11:22:34;;;;;;;2.28;2.00;;;4.80;93.10;;;;;;5045803;28;20192;-69
2023/03/05 11:25:13;;;;;;;3.92;2.25;;;4.70;93.20;;;;;;5052807;28;20196;-69
2023/03/05 11:27:49;;;;;;;2.47;1.38;;;4.60;93.20;;;;;;5051677;28;20219;-68
2023/03/05 11:30:20;;;;;;;2.17;1.60;;;4.60;93.10;;;;;;5050678;28;20196;-69
2023/03/05 11:33:10;;;;;;;2.58;2.22;;;4.50;93.20;;;;;;5047979;28;20658;-69
2023/03/05 11:35:39;;;;;;;1.75;1.58;;;4.50;92.70;;;;;;5050069;28;20610;-70
2023/03/05 11:38:16;;;;;;;2.88;2.20;;;4.40;93.30;;;;;;5050982;28;20728;-70
2023/03/05 11:40:44;;;;;;;4.45;2.33;;;4.50;93.80;;;;;;5053043;28;20315;-69
2023/03/05 11:43:16;;;;;;;4.80;2.58;;;4.60;93.80;;;;;;5056881;28;20188;-70
2023/03/05 11:45:44;;;;;;;4.75;2.67;;;4.70;93.30;;;;;;5056235;28;20216;-69
2023/03/05 11:48:19;;;;;;;5.25;2.75;;;4.90;99.00;;;;;;5049607;28;20224;-69
2023/03/05 11:50:54;;;;;;;2.67;1.40;;;4.70;93.10;;;;;;5062650;28;20286;-69
2023/03/05 11:53:27;;;;;;;3.15;2.15;;;4.60;93.40;;;;;;5053847;28;20202;-68
2023/03/05 11:55:58;;;;;;;1.75;1.65;;;4.50;94.10;;;;;;5047011;28;20271;-69
2023/03/05 11:58:38;;;;;;;2.30;2.10;;;4.60;94.20;;;;;;5043419;28;20196;-68
2023/03/05 12:01:13;;;;;;;3.03;1.67;;;4.70;99.90;;;;;;5061355;28;20276;-68
2023/03/05 12:03:40;;;;;;;5.35;3.88;;;4.40;94.50;;;;;;5058705;28;20202;-69
2023/03/05 12:06:26;;;;;;;4.65;2.00;;;4.40;94.40;;;;;;5051252;28;20212;-70
2023/03/05 12:08:55;;;;;;;4.03;2.42;;;3.90;99.10;;;;;;5044263;28;20207;-69
2023/03/05 12:11:26;;;;;;;6.53;2.65;;;4.20;94.80;;;;;;5051243;28;20281;-68
2023/03/05 12:14:05;;;;;;;3.78;2.85;;;4.50;99.90;;;;;;5060546;28;20187;-69
2023/03/05 12:16:37;;;;;;;7.40;3.60;;;4.40;94.90;;;;;;5053864;28;20262;-69
2023/03/05 12:19:29;;;;;;;2.15;2.05;;;4.50;94.80;;;;;;5049873;28;20773;-68
2023/03/05 12:21:57;;;;;;;2.97;2.45;;;4.50;94.40;;;;;;5050848;28;20223;-68
2023/03/05 12:24:38;;;;;;;1.45;1.10;;;4.30;94.60;;;;;;5049550;28;20197;-68
2023/03/05 12:27:13;;;;;;;10.45;2.65;;;4.30;94.90;;;;;;5057055;28;20231;-69
2023/03/05 12:29:46;;;;;;;2.97;2.33;;;4.20;95.20;;;;;;5046559;28;20207;-69
2023/03/05 12:32:59;;;;;;;7.60;3.08;;;4.20;94.80;;;;;;5050651;28;20222;-69
2023/03/05 12:35:37;;;;;;;9.65;6.35;;;4.40;99.90;;;;;;5048252;28;21288;-69
2023/03/05 12:38:29;;;;;;;5.80;3.40;;;4.20;94.40;;;;;;5049855;28;20225;-68
2023/03/05 12:41:36;;;;;;;15.20;5.05;;;4.30;94.80;;;;;;5059265;28;20224;-69
2023/03/05 12:44:21;;;;;;;2.22;1.55;;;4.30;94.50;;;;;;5047513;28;20211;-69
2023/03/05 12:47:23;;;;;;;11.10;6.28;;;4.30;94.20;;;;;;5036734;28;21510;-68
2023/03/05 12:49:50;;;;;;;5.22;2.70;;;4.30;94.70;;;;;;5049995;28;20203;-69
2023/03/05 12:52:23;;;;;;;10.25;7.20;;;4.30;94.20;;;;;;5049542;28;20736;-68
2023/03/05 12:55:17;;;;;;;7.75;5.40;;;4.20;93.80;;;;;;5050531;28;20210;-69
2023/03/05 12:57:45;;;;;;;2.10;2.00;;;4.30;94.30;;;;;;5047187;28;20338;-69
2023/03/05 13:00:20;;;;;;;6.90;5.22;;;4.20;93.80;;;;;;5047288;28;20775;-70
2023/03/05 13:02:57;;;;;;;9.50;3.80;;;4.20;93.60;;;;;;5049882;28;20211;-69
2023/03/05 13:05:27;;;;;;;3.95;2.83;;;4.20;93.40;;;;;;5050167;28;20245;-68
2023/03/05 13:08:10;;;;;;;6.82;3.55;;;4.20;93.60;;;;;;5050321;28;20234;-69
2023/03/05 13:10:40;;;;;;;6.00;1.42;;;4.10;93.40;;;;;;5050803;28;20226;-69
2023/03/05 13:13:12;;;;;;;6.55;1.90;;;4.20;93.70;;;;;;5050041;28;20637;-69
2023/03/05 13:15:44;;;;;;;7.10;2.20;;;4.30;93.80;;;;;;5033329;28;20200;-69
2023/03/05 13:18:19;;;;;;;3.92;2.35;;;4.00;96.30;;;;;;5048903;28;20192;-68
2023/03/05 13:21:00;;;;;;;3.88;2.22;;;4.30;93.20;;;;;;5050529;28;20672;-69
2023/03/05 13:23:28;;;;;;;2.08;1.80;;;4.20;93.30;;;;;;5047187;28;20207;-69
2023/03/05 13:26:10;;;;;;;0.65;0.40;;;4.30;93.60;;;;;;5050194;28;20694;-69
2023/03/05 13:28:38;;;;;;;3.45;2.15;;;4.20;93.10;;;;;;5049117;28;20220;-69
2023/03/05 13:31:14;;;;;;;4.85;4.43;;;4.20;93.20;;;;;;5049936;28;20243;-70
2023/03/05 13:33:51;;;;;;;3.05;1.98;;;4.20;93.40;;;;;;5049188;28;20200;-69
2023/03/05 13:36:21;;;;;;;2.05;1.95;;;4.20;93.00;;;;;;5049581;28;20220;-69
2023/03/05 13:38:48;;;;;;;4.22;1.90;;;4.30;93.20;;;;;;5048129;28;20192;-69
2023/03/05 13:41:22;;;;;;;3.10;2.90;;;4.50;93.40;;;;;;5065603;28;20278;-69
2023/03/05 13:43:51;;;;;;;2.88;2.67;;;4.40;92.70;;;;;;5056519;28;20192;-69
2023/03/05 13:46:30;;;;;;;2.03;1.40;;;4.40;92.70;;;;;;5049824;28;20222;-69
2023/03/05 13:48:58;;;;;;;2.67;1.27;;;4.50;93.00;;;;;;5046374;28;20322;-70
2023/03/05 13:51:41;;;;;;;4.68;3.55;;;4.40;93.30;;;;;;5049253;28;20223;-68
2023/03/05 13:54:10;;;;;;;4.43;1.48;;;4.50;92.80;;;;;;5049540;28;20180;-69
2023/03/05 13:56:36;;;;;;;2.03;1.92;;;4.40;93.00;;;;;;5046898;28;20208;-69
2023/03/05 13:59:04;;;;;;;5.75;2.65;;;4.50;93.00;;;;;;5058517;28;20196;-69
2023/03/05 14:01:35;;;;;;;6.07;4.85;;;4.40;97.30;;;;;;5065198;28;20227;-69
2023/03/05 14:04:07;;;;;;;3.75;1.50;;;4.40;92.40;;;;;;5050113;28;20204;-69
2023/03/05 14:06:40;;;;;;;4.53;3.13;;;4.50;92.90;;;;;;5043716;28;20230;-69
2023/03/05 14:09:16;;;;;;;8.52;3.22;;;4.50;93.10;;;;;;5047470;28;20208;-69
2023/03/05 14:11:53;;;;;;;1.55;1.45;;;4.60;93.00;;;;;;5046517;28;20707;-67
2023/03/05 14:14:22;;;;;;;4.78;3.47;;;4.70;92.80;;;;;;5046686;28;20192;-68
2023/03/05 14:16:50;;;;;;;2.17;1.80;;;4.70;92.90;;;;;;5044989;28;20212;-69
2023/03/05 14:19:35;;;;;;;10.85;2.25;;;4.70;92.90;;;;;;5046292;28;20195;-69
2023/03/05 14:22:02;;;;;;;3.92;2.67;;;4.70;92.70;;;;;;5043456;28;20224;-70
2023/03/05 14:24:30;;;;;;;12.20;1.77;;;4.40;97.60;;;;;;5044826;28;20196;-70
2023/03/05 14:26:59;;;;;;;1.58;1.30;;;4.60;92.80;;;;;;5051362;28;20212;-69
2023/03/05 14:29:31;;;;;;;3.30;2.55;;;4.60;92.80;;;;;;5050673;28;20200;-70
2023/03/05 14:32:03;;;;;;;2.63;2.10;;;4.50;92.20;;;;;;5046167;28;20230;-68
2023/03/05 14:34:34;;;;;;;3.88;1.20;;;4.30;92.40;;;;;;5047518;28;20206;-68
2023/03/05 14:37:04;;;;;;;7.57;2.08;;;4.30;92.30;;;;;;5047608;28;20251;-69
2023/03/05 14:39:43;;;;;;;2.33;2.10;;;4.20;92.60;;;;;;5048709;28;20200;-69
2023/03/05 14:42:30;;;;;;;1.50;1.40;;;4.30;92.70;;;;;;5048047;28;20239;-70
2023/03/05 14:45:12;;;;;;;2.20;1.45;;;4.30;92.60;;;;;;5030089;28;20197;-68
2023/03/05 14:47:41;;;;;;;2.45;1.77;;;4.10;92.80;;;;;;5038967;28;20216;-68
2023/03/05 14:50:10;;;;;;;3.00;2.30;;;4.10;93.00;;;;;;5048398;28;20199;-70
2023/03/05 14:52:42;;;;;;;5.30;1.85;;;4.10;92.90;;;;;;5049186;28;20195;-69
2023/03/05 14:55:14;;;;;;;2.42;2.25;;;4.10;93.30;;;;;;5049324;28;20275;-69
2023/03/05 14:57:41;;;;;;;4.25;2.10;;;4.10;93.40;;;;;;5048810;28;20192;-70
2023/03/05 15:00:16;;;;;;;3.67;1.83;;;4.00;92.90;;;;;;5060187;28;20662;-70
2023/03/05 15:02:44;;;;;;;2.92;1.33;;;3.90;93.00;;;;;;5048390;28;20436;-70
2023/03/05 15:05:10;;;;;;;2.90;1.42;;;4.00;98.50;;;;;;5049263;28;20581;-68
2023/03/05 15:07:38;;;;;;;4.50;4.20;;;3.90;93.40;;;;;;5057402;28;20218;-69
2023/03/05 15:10:06;;;;;;;2.42;2.22;;;3.90;93.40;;;;;;5045326;28;20678;-69
2023/03/05 15:12:43;;;;;;;3.70;3.10;;;4.00;93.60;;;;;;5049713;28;20204;-69
2023/03/05 15:15:13;;;;;;;3.03;2.92;;;4.00;93.70;;;;;;5042672;28;20187;-70
2023/03/05 15:17:42;;;;;;;11.75;2.15;;;4.10;93.60;;;;;;5040451;28;20188;-69
2023/03/05 15:20:15;;;;;;;2.78;1.92;;;4.10;93.60;;;;;;5051372;28;20207;-68
2023/03/05 15:22:42;;;;;;;1.10;1.02;;;4.00;93.30;;;;;;5050864;28;20630;-69
2023/03/05 15:25:10;;;;;;;1.95;1.85;;;3.90;93.40;;;;;;5052627;28;20196;-69
2023/03/05 15:27:37;;;;;;;9.85;1.98;;;4.00;93.60;;;;;;5056174;28;20222;-69
2023/03/05 15:30:05;;;;;;;2.30;1.25;;;3.80;93.90;;;;;;5051273;28;20192;-69
2023/03/05 15:32:38;;;;;;;3.80;1.35;;;3.90;93.90;;;;;;5038953;28;20616;-69
2023/03/05 15:35:05;;;;;;;1.55;1.20;;;3.90;93.80;;;;;;5050750;28;20657;-69
2023/03/05 15:37:33;;;;;;;3.83;2.38;;;4.10;99.60;;;;;;5051763;28;20287;-68
2023/03/05 15:40:00;;;;;;;1.88;1.77;;;3.90;93.80;;;;;;5054878;28;20187;-68
2023/03/05 15:42:27;;;;;;;2.38;2.20;;;3.80;93.60;;;;;;5051370;28;20314;-68
2023/03/05 15:44:54;;;;;;;1.52;1.40;;;3.70;93.90;;;;;;5052021;28;20203;-69
2023/03/05 15:47:21;;;;;;;1.65;1.55;;;3.70;93.90;;;;;;5044908;28;20212;-69
2023/03/05 15:49:48;;;;;;;9.35;2.33;;;3.60;94.00;;;;;;5049340;28;20279;-69
2023/03/05 15:52:14;;;;;;;4.38;3.97;;;3.70;97.70;;;;;;5052980;28;20715;-69
2023/03/05 15:54:50;;;;;;;1.52;1.42;;;3.70;94.10;;;;;;5051609;28;20198;-69
2023/03/05 15:57:20;;;;;;;1.85;0.98;;;3.70;94.00;;;;;;5046084;28;20216;-69
2023/03/05 15:59:47;;;;;;;3.67;2.50;;;3.80;96.50;;;;;;5058302;28;20219;-70
2023/03/05 16:02:14;;;;;;;3.40;2.45;;;3.60;94.00;;;;;;5050377;28;20236;-72
2023/03/05 16:04:41;;;;;;;1.42;1.33;;;3.70;93.90;;;;;;5050992;28;20734;-71
2023/03/05 16:07:09;;;;;;;3.13;2.60;;;3.70;93.70;;;;;;5051303;28;20690;-71
2023/03/05 16:09:38;;;;;;;2.03;1.50;;;4.20;94.00;;;;;;5050775;28;20310;-69
2023/03/05 16:12:12;;;;;;;2.92;2.67;;;3.70;93.20;;;;;;5043153;28;20633;-69
2023/03/05 16:14:40;;;;;;;2.20;1.10;;;3.60;93.20;;;;;;5046161;28;20200;-69
2023/03/05 16:17:15;;;;;;;1.98;1.85;;;3.50;92.90;;;;;;5051355;28;20226;-68
2023/03/05 16:19:44;;;;;;;1.50;1.20;;;3.50;92.90;;;;;;5050493;28;20202;-70
2023/03/05 16:22:11;;;;;;;3.58;2.00;;;3.60;97.90;;;;;;5047578;28;20316;-71
2023/03/05 16:24:38;;;;;;;2.95;2.65;;;3.40;92.50;;;;;;5050797;28;20203;-69
2023/03/05 16:27:12;;;;;;;5.10;1.80;;;3.40;92.70;;;;;;5050519;28;20226;-69
2023/03/05 16:29:38;;;;;;;0.63;0.63;;;3.50;92.80;;;;;;5050659;28;20228;-69
2023/03/05 16:32:06;;;;;;;1.35;1.25;;;3.50;92.70;;;;;;5049632;28;20220;-70
2023/03/05 16:34:33;;;;;;;2.90;1.50;;;3.50;92.70;;;;;;5051070;28;20835;-69
2023/03/05 16:37:03;;;;;;;1.50;1.45;;;3.50;92.70;;;;;;5051001;28;20298;-69
2023/03/05 16:39:39;;;;;;;3.70;2.13;;;3.50;92.10;;;;;;5051458;28;20206;-69
2023/03/05 16:42:07;;;;;;;1.27;1.13;;;3.30;97.30;;;;;;5054342;28;20280;-68
2023/03/05 16:44:36;;;;;;;3.85;1.30;;;3.40;92.10;;;;;;5051370;28;20184;-70
2023/03/05 16:47:10;;;;;;;2.75;2.05;;;3.40;92.00;;;;;;5051717;28;20320;-69
2023/03/05 16:49:38;;;;;;;0.93;0.93;;;3.40;92.20;;;;;;5048941;28;20278;-68
2023/03/05 16:52:05;;;;;;;1.85;1.38;;;3.40;92.40;;;;;;5039349;28;20224;-68
2023/03/05 16:54:33;;;;;;;1.20;1.10;;;3.40;92.60;;;;;;5049964;28;20618;-69
2023/03/05 16:57:00;;;;;;;2.50;1.20;;;3.30;99.40;;;;;;5049877;28;20234;-70
2023/03/05 16:59:35;;;;;;;3.83;2.63;;;3.30;92.90;;;;;;5057065;28;20282;-68
2023/03/05 17:02:02;;;;;;;2.05;1.55;;;3.30;92.50;;;;;;5054472;28;20224;-70
2023/03/05 17:04:30;;;;;;;8.75;1.50;;;;;;;;;;5050324;28;20195;-68
2023/03/05 17:07:02;;;;;;;1.58;0.93;;;3.30;92.50;;;;;;5049741;28;20223;-67
2023/03/05 17:09:30;;;;;;;2.35;2.15;;;3.40;92.90;;;;;;5049003;28;20699;-69
2023/03/05 17:11:57;;;;;;;0.63;0.63;;;3.40;93.00;;;;;;5049945;28;20220;-69
2023/03/05 17:14:24;;;;;;;3.28;1.60;;;3.30;92.80;;;;;;5050099;28;20196;-69
2023/03/05 17:16:52;;;;;;;1.33;0.85;;;3.30;93.00;;;;;;5050367;28;20230;-69
2023/03/05 17:19:19;;;;;;;1.35;1.15;;;3.30;92.90;;;;;;5048538;28;20193;-68
2023/03/05 17:21:49;;;;;;;1.88;1.73;;;3.40;99.90;;;;;;5048967;28;20215;-69
2023/03/05 17:24:16;;;;;;;2.17;0.90;;;3.30;93.20;;;;;;5040193;28;20287;-70
2023/03/05 17:26:43;;;;;;;1.42;1.33;;;2.90;95.40;;;;;;5038589;28;20212;-69
2023/03/05 17:29:10;;;;;;;1.10;1.05;;;3.30;93.10;;;;;;5048201;28;20219;-68
2023/03/05 17:31:36;;;;;;;2.13;1.88;;;3.30;93.40;;;;;;5048696;28;20227;-69
2023/03/05 17:34:05;;;;;;;1.30;0.85;;;3.60;99.20;;;;;;5049078;28;20198;-68
2023/03/05 17:36:32;;;;;;;1.30;1.05;;;3.30;93.20;;;;;;5049842;28;20212;-69
2023/03/05 17:39:01;;;;;;;2.60;1.65;;;3.30;93.10;;;;;;5048967;28;20196;-67
2023/03/05 17:41:28;;;;;;;1.30;1.17;;;3.30;93.30;;;;;;5049123;28;20220;-69
2023/03/05 17:43:55;;;;;;;1.58;1.45;;;3.30;93.50;;;;;;5049716;28;20305;-69
2023/03/05 17:46:22;;;;;;;4.85;3.00;;;3.30;93.30;;;;;;5049420;28;20227;-69
2023/03/05 17:48:49;;;;;;;3.45;1.95;;;3.30;93.30;;;;;;5047961;28;20228;-69
2023/03/05 17:51:24;;;;;;;2.05;1.25;;;3.30;93.50;;;;;;5046678;28;20215;-69
2023/03/05 17:53:51;;;;;;;3.03;1.17;;;3.30;93.60;;;;;;5048707;28;20207;-69
2023/03/05 17:56:20;;;;;;;1.45;1.35;;;3.30;93.70;;;;;;5041906;28;20295;-68
2023/03/05 17:58:48;;;;;;;1.95;0.80;;;3.30;93.90;;;;;;5040024;28;20207;-70
2023/03/05 18:01:33;;;;;;;1.23;1.08;;;3.40;99.90;;;;;;5044584;28;20232;-67
2023/03/05 18:04:00;;;;;;;1.05;1.05;;;3.30;93.90;;;;;;5035509;28;20196;-69
2023/03/05 18:06:29;;;;;;;1.30;1.17;;;3.30;94.10;;;;;;5048846;28;20247;-69
2023/03/05 18:08:55;;;;;;;1.63;1.52;;;3.30;94.20;;;;;;5048380;28;20207;-69
2023/03/05 18:11:23;;;;;;;1.73;1.60;;;3.30;93.90;;;;;;5047548;28;20286;-70
2023/03/05 18:13:50;;;;;;;3.00;2.50;;;3.30;93.90;;;;;;5049147;28;20322;-70
2023/03/05 18:16:17;;;;;;;3.58;2.90;;;3.30;93.80;;;;;;5047584;28;20226;-70
2023/03/05 18:18:44;;;;;;;2.45;1.90;;;3.30;94.10;;;;;;5046723;28;20237;-69
2023/03/05 18:21:11;;;;;;;3.92;1.60;;;3.30;94.20;;;;;;5047124;28;20212;-69
2023/03/05 18:23:39;;;;;;;5.32;2.97;;;3.30;94.20;;;;;;5036244;28;20246;-69
2023/03/05 18:26:06;;;;;;;1.65;1.55;;;3.30;94.10;;;;;;5050352;28;20219;-69
2023/03/05 18:28:33;;;;;;;5.88;1.48;;;3.20;94.20;;;;;;5045801;28;20326;-70
2023/03/05 18:31:00;;;;;;;1.55;1.27;;;3.30;94.20;;;;;;5040701;28;20804;-69
2023/03/05 18:33:27;;;;;;;4.05;3.08;;;3.30;94.10;;;;;;5049345;28;20649;-70
2023/03/05 18:35:54;;;;;;;7.30;3.30;;;3.30;94.10;;;;;;5056010;28;20224;-70
2023/03/05 18:38:22;;;;;;;5.65;1.80;;;3.40;99.90;;;;;;5051164;28;20200;-69
2023/03/05 18:40:51;;;;;;;18.60;8.45;;;3.30;99.90;;;;;;5046890;28;20231;-69
2023/03/05 18:43:19;;;;;;;14.35;6.32;;;3.20;94.10;;;;;;5050397;28;20196;-70
2023/03/05 18:45:46;;;;;;;6.75;3.88;;;3.20;94.70;;;;;;5050218;28;20220;-69
2023/03/05 18:48:13;;;;;;;13.63;7.03;;;3.20;94.50;;;;;;5058786;28;20191;-69
2023/03/05 18:50:40;;;;;;;6.07;4.88;;;3.20;94.60;;;;;;5056339;28;20298;-69
2023/03/05 18:53:07;;;;;;;15.60;5.30;;;3.20;94.60;;;;;;5054355;28;20198;-68
2023/03/05 18:55:41;;;;;;;7.05;3.13;;;3.20;94.70;;;;;;5068869;28;20755;-69
2023/03/05 18:58:09;;;;;;;2.08;1.95;;;3.20;94.80;;;;;;5062065;28;20196;-70
2023/03/05 19:00:36;;;;;;;3.25;2.00;;;3.20;95.00;;;;;;5059204;28;20630;-69
2023/03/05 19:03:04;;;;;;;2.10;1.98;;;3.20;94.90;;;;;;5038296;28;20230;-71
2023/03/05 19:05:38;;;;;;;3.85;2.22;;;3.20;94.90;;;;;;5048333;28;20347;-70
2023/03/05 19:08:06;;;;;;;5.72;4.03;;;3.50;99.90;;;;;;5051472;28;20195;-69
2023/03/05 19:10:34;;;;;;;1.90;1.80;;;3.10;95.10;;;;;;5051293;28;20286;-69
2023/03/05 19:13:14;;;;;;;6.22;2.50;;;3.20;95.10;;;;;;5039013;28;20259;-69
2023/03/05 19:15:42;;;;;;;1.48;1.48;;;3.20;94.80;;;;;;5055355;28;20275;-70
2023/03/05 19:18:09;;;;;;;2.67;2.53;;;3.00;99.90;;;;;;5047084;28;20281;-69
2023/03/05 19:20:36;;;;;;;5.20;3.35;;;3.20;97.50;;;;;;5051124;28;20232;-69
2023/03/05 19:23:03;;;;;;;4.57;2.45;;;3.10;95.10;;;;;;5051139;28;20828;-69
2023/03/05 19:25:35;;;;;;;3.85;1.95;;;3.20;95.10;;;;;;5052092;28;20231;-70
2023/03/05 19:28:02;;;;;;;2.88;2.67;;;3.20;95.10;;;;;;5065653;28;20199;-69
2023/03/05 19:30:28;;;;;;;0.80;0.80;;;3.20;95.30;;;;;;5071518;28;20223;-69
2023/03/05 19:32:57;;;;;;;1.42;1.10;;;3.00;99.90;;;;;;5068503;28;20196;-69
2023/03/05 19:35:24;;;;;;;4.32;1.85;;;3.10;95.20;;;;;;5062713;28;20818;-69
2023/03/05 19:37:51;;;;;;;2.90;2.70;;;3.10;95.30;;;;;;5069705;28;20273;-69
2023/03/05 19:40:18;;;;;;;3.35;2.35;;;3.10;95.30;;;;;;5069803;28;20190;-70
2023/03/05 19:42:45;;;;;;;3.25;2.50;;;3.20;98.00;;;;;;5057199;28;20282;-69
2023/03/05 19:45:12;;;;;;;3.63;2.53;;;3.00;95.30;;;;;;5069399;28;20195;-69
2023/03/05 19:47:39;;;;;;;9.60;2.25;;;3.10;95.30;;;;;;5072377;28;20548;-69
2023/03/05 19:50:08;;;;;;;8.73;4.28;;;3.10;95.30;;;;;;5067705;28;20215;-70
2023/03/05 19:52:35;;;;;;;3.80;1.13;;;3.10;95.30;;;;;;5059755;28;20199;-70
2023/03/05 19:55:02;;;;;;;4.05;3.65;;;3.00;95.30;;;;;;5071619;28;20688;-69
2023/03/05 19:57:29;;;;;;;3.95;2.30;;;3.00;95.40;;;;;;5080989;28;20192;-69
2023/03/05 20:00:00;;;;;;;3.20;1.00;;;3.00;95.50;;;;;;5076740;28;20183;-67
2023/03/05 20:02:27;;;;;;;4.88;3.13;;;3.00;95.40;;;;;;5071132;28;20582;-69
2023/03/05 20:04:54;;;;;;;3.58;3.38;;;3.00;95.50;;;;;;5071155;28;20237;-70
2023/03/05 20:07:23;;;;;;;2.17;2.08;;;3.00;95.60;;;;;;5071552;28;20222;-70
2023/03/05 20:09:51;;;;;;;13.20;1.90;;;3.10;95.60;;;;;;5069691;28;20229;-69
2023/03/05 20:12:26;;;;;;;6.75;2.40;;;3.00;95.60;;;;;;5069283;28;20223;-70
2023/03/05 20:14:53;;;;;;;3.35;3.08;;;3.00;95.90;;;;;;5072091;28;20202;-68
2023/03/05 20:17:19;;;;;;;3.00;2.80;;;3.40;99.50;;;;;;5058227;28;20220;-70
2023/03/05 20:19:54;;;;;;;5.38;2.45;;;2.90;95.90;;;;;;5069128;28;20554;-69
2023/03/05 20:22:20;;;;;;;4.10;3.63;;;3.00;95.80;;;;;;5065991;28;20298;-69
2023/03/05 20:24:49;;;;;;;3.22;2.92;;;3.00;95.70;;;;;;5075928;28;20182;-70
2023/03/05 20:27:16;;;;;;;4.35;3.08;;;3.00;95.80;;;;;;5050299;28;20280;-69
2023/03/05 20:29:42;;;;;;;3.08;2.90;;;3.50;95.90;;;;;;5083829;28;20245;-69
2023/03/05 20:32:09;;;;;;;4.10;2.33;;;3.10;95.60;;;;;;5071241;28;20203;-70
2023/03/05 20:34:36;;;;;;;4.20;2.92;;;3.10;95.60;;;;;;5071002;28;20544;-69
2023/03/05 20:37:03;;;;;;;3.47;3.17;;;3.00;95.50;;;;;;5071390;28;20815;-70
2023/03/05 20:39:30;;;;;;;4.03;3.17;;;3.00;95.80;;;;;;5070675;28;21235;-69
2023/03/05 20:42:00;;;;;;;5.88;3.50;;;2.90;98.00;;;;;;5069205;28;20248;-68
2023/03/05 20:44:26;;;;;;;5.00;4.13;;;3.10;95.70;;;;;;5070979;28;20561;-70
2023/03/05 20:47:01;;;;;;;2.70;2.35;;;3.00;95.50;;;;;;5070599;28;20257;-69
2023/03/05 20:49:28;;;;;;;2.88;2.67;;;3.10;95.50;;;;;;5069810;28;20289;-69
2023/03/05 20:51:57;;;;;;;9.07;3.55;;;3.10;99.90;;;;;;5069521;28;20308;-68
2023/03/05 20:54:26;;;;;;;3.47;1.45;;;3.00;95.50;;;;;;5071322;28;20202;-69
2023/03/05 20:56:52;;;;;;;2.47;1.70;;;3.10;95.60;;;;;;5058159;28;20701;-69
2023/03/05 20:59:22;;;;;;;2.53;2.30;;;3.00;95.50;;;;;;5075802;28;20671;-69
2023/03/05 21:01:49;;;;;;;6.40;2.97;;;3.10;95.40;;;;;;5071208;28;20310;-69
2023/03/05 21:04:16;;;;;;;1.00;0.90;;;3.00;99.90;;;;;;5067731;28;20274;-70
2023/03/05 21:06:42;;;;;;;2.47;2.28;;;3.00;99.90;;;;;;5065905;28;20216;-70
2023/03/05 21:09:09;;;;;;;2.03;1.80;;;2.90;95.50;;;;;;5063839;28;20195;-70
2023/03/05 21:11:36;;;;;;;16.20;4.30;;;2.80;99.90;;;;;;5067029;28;20225;-70
2023/03/05 21:14:09;;;;;;;8.88;3.65;;;2.90;95.60;;;;;;5065923;28;20188;-69
2023/03/05 21:16:37;;;;;;;6.13;1.90;;;3.00;95.40;;;;;;5070209;28;20229;-69
2023/03/05 21:19:03;;;;;;;3.15;1.90;;;3.00;95.50;;;;;;5065512;28;20202;-70
2023/03/05 21:21:30;;;;;;;3.40;3.10;;;3.00;95.40;;;;;;5067324;28;20530;-69
2023/03/05 21:23:58;;;;;;;1.52;1.38;;;3.00;95.30;;;;;;5073171;28;20217;-70
2023/03/05 21:26:24;;;;;;;3.05;1.98;;;3.00;95.30;;;;;;5081284;28;20215;-69
2023/03/05 21:28:51;;;;;;;5.72;3.95;;;3.60;99.90;;;;;;5071018;28;20191;-70
2023/03/05 21:31:20;;;;;;;2.75;2.55;;;3.10;94.90;;;;;;5069968;28;20229;-69